createdAt,value
2023-05-12T00:01:12.528Z,13.97
2023-05-12T00:03:40.243Z,14.73
2023-05-12T00:06:07.618Z,15.80
2023-05-12T00:08:35.513Z,16.12
2023-05-12T00:11:03.045Z,13.73
2023-05-12T00:13:30.619Z,13.40
2023-05-12T00:15:59.509Z,14.60
2023-05-12T00:18:26.825Z,12.70
2023-05-12T00:20:55.130Z,11.57
2023-05-12T00:23:22.999Z,12.93
2023-05-12T00:25:50.569Z,13.77
2023-05-12T00:28:18.065Z,14.90
2023-05-12T00:30:46.402Z,12.57
2023-05-12T00:33:13.958Z,14.83
2023-05-12T00:35:41.478Z,11.53
2023-05-12T00:38:09.072Z,14.10
2023-05-12T00:40:36.613Z,13.57
2023-05-12T00:43:04.125Z,13.73
2023-05-12T00:45:32.545Z,14.10
2023-05-12T00:48:00.070Z,16.47
2023-05-12T00:50:27.554Z,18.93
2023-05-12T00:52:55.889Z,13.93
2023-05-12T00:55:23.413Z,14.57
2023-05-12T00:57:51.002Z,12.33
2023-05-12T01:00:18.850Z,15.80
2023-05-12T01:02:46.154Z,14.27
2023-05-12T01:05:13.600Z,14.80
2023-05-12T01:07:41.982Z,13.23
2023-05-12T01:10:19.376Z,14.03
2023-05-12T01:12:46.780Z,17.33
2023-05-12T01:15:14.323Z,15.60
2023-05-12T01:17:41.938Z,15.30
2023-05-12T01:20:09.581Z,14.00
2023-05-12T01:22:37.136Z,14.03
2023-05-12T01:25:04.687Z,17.90
2023-05-12T01:27:32.645Z,14.10
2023-05-12T01:30:00.187Z,16.20
2023-05-12T01:32:28.487Z,19.10
2023-05-12T01:34:56.339Z,15.00
2023-05-12T01:37:23.856Z,16.50
2023-05-12T01:39:52.167Z,14.73
2023-05-12T01:42:19.777Z,16.07
2023-05-12T01:44:47.298Z,14.73
2023-05-12T01:47:14.818Z,14.33
2023-05-12T01:49:42.411Z,13.83
2023-05-12T01:52:09.925Z,13.60
2023-05-12T01:54:38.216Z,13.40
2023-05-12T01:57:05.886Z,13.50
2023-05-12T01:59:33.432Z,13.43
2023-05-12T02:02:01.037Z,16.03
2023-05-12T02:04:28.535Z,15.33
2023-05-12T02:06:56.852Z,15.57
2023-05-12T02:09:25.968Z,14.30
2023-05-12T02:11:52.290Z,14.73
2023-05-12T02:14:19.835Z,15.30
2023-05-12T02:16:50.505Z,15.75
2023-05-12T02:19:17.979Z,14.43
2023-05-12T02:21:45.502Z,13.30
2023-05-12T02:24:14.778Z,14.83
2023-05-12T02:26:40.938Z,12.30
2023-05-12T02:29:08.468Z,12.40
2023-05-12T02:31:36.001Z,14.57
2023-05-12T02:34:05.787Z,12.03
2023-05-12T02:36:31.145Z,13.40
2023-05-12T02:38:58.682Z,14.57
2023-05-12T02:41:27.016Z,16.07
2023-05-12T02:43:54.536Z,14.67
2023-05-12T02:46:22.140Z,13.27
2023-05-12T02:48:50.673Z,13.50
2023-05-12T02:51:18.207Z,14.80
2023-05-12T02:53:46.512Z,14.33
2023-05-12T02:56:14.377Z,16.27
2023-05-12T02:58:41.917Z,17.47
2023-05-12T03:01:11.502Z,14.03
2023-05-12T03:03:38.047Z,17.03
2023-05-12T03:06:05.326Z,14.50
2023-05-12T03:08:32.849Z,15.03
2023-05-12T03:11:01.205Z,15.13
2023-05-12T03:13:28.798Z,15.93
2023-05-12T03:15:57.100Z,17.00
2023-05-12T03:18:24.689Z,15.63
2023-05-12T03:20:52.207Z,15.07
2023-05-12T03:23:19.752Z,15.00
2023-05-12T03:25:48.109Z,16.83
2023-05-12T03:28:15.678Z,15.60
2023-05-12T03:30:43.236Z,15.57
2023-05-12T03:33:10.824Z,15.03
2023-05-12T03:35:39.131Z,16.83
2023-05-12T03:38:06.653Z,15.30
2023-05-12T03:40:34.244Z,14.27
2023-05-12T03:43:01.765Z,14.00
2023-05-12T03:45:29.307Z,14.77
2023-05-12T03:47:57.023Z,15.53
2023-05-12T03:50:24.558Z,16.57
2023-05-12T03:52:52.099Z,14.03
2023-05-12T03:55:20.471Z,12.13
2023-05-12T03:57:48.783Z,13.17
2023-05-12T04:00:16.422Z,13.13
2023-05-12T04:02:44.420Z,17.23
2023-05-12T04:05:11.820Z,15.52
2023-05-12T04:07:39.376Z,13.23
2023-05-12T04:10:07.206Z,12.97
2023-05-12T04:12:34.789Z,17.77
2023-05-12T04:15:02.292Z,15.37
2023-05-12T04:17:31.032Z,14.20
2023-05-12T04:19:58.529Z,14.37
2023-05-12T04:22:26.831Z,14.33
2023-05-12T04:24:54.560Z,13.07
2023-05-12T04:27:22.111Z,17.93
2023-05-12T04:29:49.621Z,14.50
2023-05-12T04:32:17.299Z,17.65
2023-05-12T04:34:44.738Z,16.40
2023-05-12T04:37:12.281Z,17.47
2023-05-12T04:39:40.827Z,15.73
2023-05-12T04:42:08.380Z,15.23
2023-05-12T04:44:35.905Z,19.95
2023-05-12T04:47:03.495Z,20.37
2023-05-12T04:49:31.033Z,18.63
2023-05-12T04:51:58.575Z,15.43
2023-05-12T04:54:26.167Z,16.47
2023-05-12T04:56:53.700Z,16.63
2023-05-12T04:59:21.269Z,19.87
2023-05-12T05:01:49.490Z,17.93
2023-05-12T05:04:16.972Z,19.23
2023-05-12T05:06:44.488Z,17.60
2023-05-12T05:09:12.080Z,18.00
2023-05-12T05:11:40.360Z,18.70
2023-05-12T05:14:08.275Z,20.53
2023-05-12T05:16:36.121Z,21.37
2023-05-12T05:19:06.496Z,18.50
2023-05-12T05:21:31.945Z,19.30
2023-05-12T05:23:59.510Z,18.03
2023-05-12T05:26:27.044Z,15.73
2023-05-12T05:28:54.571Z,17.80
2023-05-12T05:31:22.226Z,17.37
2023-05-12T05:33:50.532Z,18.50
2023-05-12T05:36:18.013Z,17.27
2023-05-12T05:38:45.573Z,17.63
2023-05-12T05:41:13.128Z,17.57
2023-05-12T05:43:40.662Z,18.20
2023-05-12T05:46:09.018Z,17.93
2023-05-12T05:48:39.171Z,17.20
2023-05-12T05:51:07.473Z,17.97
2023-05-12T05:53:35.036Z,18.13
2023-05-12T05:56:02.586Z,15.83
2023-05-12T05:58:30.101Z,16.83
2023-05-12T06:00:58.443Z,17.30
2023-05-12T06:03:26.069Z,16.03
2023-05-12T06:05:53.528Z,17.43
2023-05-12T06:08:21.118Z,18.30
2023-05-12T06:10:48.658Z,15.50
2023-05-12T06:13:16.176Z,18.63
2023-05-12T06:15:44.607Z,19.60
2023-05-12T06:18:12.190Z,17.50
2023-05-12T06:20:39.692Z,19.57
2023-05-12T06:23:08.043Z,17.50
2023-05-12T06:25:35.567Z,16.73
2023-05-12T06:28:03.116Z,19.58
2023-05-12T06:30:30.690Z,19.03
2023-05-12T06:32:58.256Z,18.17
2023-05-12T06:35:25.742Z,16.43
2023-05-12T06:37:54.086Z,20.43
2023-05-12T06:40:21.622Z,18.33
2023-05-12T06:42:49.257Z,19.33
2023-05-12T06:45:17.632Z,18.03
2023-05-12T06:47:45.077Z,19.03
2023-05-12T06:50:12.586Z,18.20
2023-05-12T06:52:40.172Z,17.20
2023-05-12T06:55:07.751Z,15.87
2023-05-12T06:57:35.283Z,15.80
2023-05-12T07:00:02.868Z,17.92
2023-05-12T07:02:30.483Z,18.93
2023-05-12T07:04:57.970Z,17.33
2023-05-12T07:07:25.557Z,17.65
2023-05-12T07:09:53.857Z,18.20
2023-05-12T07:12:21.388Z,21.13
2023-05-12T07:14:49.734Z,16.17
2023-05-12T07:17:17.268Z,14.57
2023-05-12T07:19:44.896Z,22.42
2023-05-12T07:22:14.315Z,16.37
2023-05-12T07:24:42.579Z,15.20
2023-05-12T07:27:10.131Z,17.70
2023-05-12T07:29:38.733Z,17.83
2023-05-12T07:32:06.298Z,16.67
2023-05-12T07:34:33.840Z,18.53
2023-05-12T07:37:02.545Z,16.47
2023-05-12T07:39:30.132Z,20.03
2023-05-12T07:41:57.642Z,19.93
2023-05-12T07:44:26.065Z,16.33
2023-05-12T07:46:53.602Z,18.37
2023-05-12T07:49:21.108Z,14.77
2023-05-12T07:51:48.697Z,18.30
2023-05-12T07:54:16.238Z,15.20
2023-05-12T07:56:43.772Z,15.93
2023-05-12T07:59:11.347Z,15.13
2023-05-12T08:01:38.984Z,11.97
2023-05-12T08:04:06.481Z,13.53
2023-05-12T08:06:34.260Z,16.33
2023-05-12T08:09:01.793Z,10.80
2023-05-12T08:11:29.336Z,13.37
2023-05-12T08:13:56.912Z,13.00
2023-05-12T08:16:24.479Z,15.98
2023-05-12T08:18:52.012Z,14.43
2023-05-12T08:21:19.563Z,13.93
2023-05-12T08:23:47.077Z,12.53
2023-05-12T08:26:17.487Z,16.60
2023-05-12T08:28:45.838Z,10.80
2023-05-12T08:31:13.465Z,12.80
2023-05-12T08:33:40.899Z,13.70
2023-05-12T08:36:09.251Z,23.33
2023-05-12T08:38:36.771Z,18.37
2023-05-12T08:41:26.422Z,16.17
2023-05-12T08:43:53.950Z,14.93
2023-05-12T08:46:22.255Z,14.53
2023-05-12T08:48:49.840Z,11.50
2023-05-12T08:51:17.362Z,9.43
2023-05-12T08:53:44.896Z,10.53
2023-05-12T08:58:42.057Z,14.10
2023-05-12T09:01:08.319Z,6.97
2023-05-12T09:03:36.675Z,6.30
2023-05-12T09:06:04.185Z,6.23
2023-05-12T09:08:34.406Z,6.00
2023-05-12T09:11:02.263Z,6.03
2023-05-12T09:13:47.829Z,5.30
2023-05-12T09:16:15.445Z,6.57
2023-05-12T09:18:52.219Z,7.63
2023-05-12T09:21:20.496Z,6.00
2023-05-12T09:23:54.167Z,6.73
2023-05-12T09:26:21.671Z,7.12
2023-05-12T09:28:50.047Z,5.97
2023-05-12T09:31:17.639Z,7.80
2023-05-12T09:33:45.112Z,5.27
2023-05-12T09:36:12.677Z,5.10
2023-05-12T09:38:40.204Z,4.70
2023-05-12T09:41:07.731Z,7.77
2023-05-12T09:43:35.312Z,4.80
2023-05-12T09:46:06.322Z,4.37
2023-05-12T09:48:33.810Z,5.53
2023-05-12T09:51:02.223Z,5.03
2023-05-12T09:53:29.733Z,4.77
2023-05-12T09:55:57.314Z,4.77
2023-05-12T09:58:24.891Z,4.80
2023-05-12T10:01:17.630Z,6.37
2023-05-12T10:03:20.718Z,3.90
2023-05-12T10:05:50.977Z,3.80
2023-05-12T10:08:18.513Z,5.30
2023-05-12T10:10:46.026Z,4.73
2023-05-12T10:13:14.402Z,3.30
2023-05-12T10:15:41.904Z,2.80
2023-05-12T10:18:09.472Z,3.92
2023-05-12T10:20:37.110Z,4.37
2023-05-12T10:23:04.636Z,3.13
2023-05-12T10:25:32.171Z,1.80
2023-05-12T10:27:59.738Z,3.97
2023-05-12T10:30:27.272Z,4.20
2023-05-12T10:32:54.875Z,2.07
2023-05-12T10:35:22.525Z,1.93
2023-05-12T10:37:49.926Z,1.70
2023-05-12T10:40:23.446Z,2.17
2023-05-12T10:42:51.766Z,2.83
2023-05-12T10:45:20.450Z,1.70
2023-05-12T10:47:47.641Z,3.10
2023-05-12T10:50:15.222Z,1.40
2023-05-12T10:52:58.389Z,1.87
2023-05-12T10:55:32.550Z,9.20
2023-05-12T10:58:12.794Z,1.07
2023-05-12T11:00:45.948Z,1.23
2023-05-12T11:03:17.089Z,1.70
2023-05-12T11:05:44.233Z,1.07
2023-05-12T11:08:11.976Z,2.10
2023-05-12T11:10:39.724Z,1.10
2023-05-12T11:13:06.504Z,5.03
2023-05-12T11:15:34.635Z,2.10
2023-05-12T11:18:04.896Z,2.50
2023-05-12T11:20:33.102Z,1.60
2023-05-12T11:23:01.441Z,1.93
2023-05-12T11:25:29.016Z,1.30
2023-05-12T11:27:56.515Z,1.40
2023-05-12T11:30:24.097Z,2.60
2023-05-12T11:32:51.656Z,1.03
2023-05-12T11:35:19.466Z,1.33
2023-05-12T11:37:46.767Z,1.10
2023-05-12T11:40:20.187Z,1.50
2023-05-12T11:42:50.135Z,1.33
2023-05-12T11:45:22.551Z,1.83
2023-05-12T11:47:49.718Z,1.83
2023-05-12T11:50:20.962Z,1.10
2023-05-12T11:52:48.530Z,1.47
2023-05-12T11:55:16.050Z,1.97
2023-05-12T11:57:43.584Z,4.30
2023-05-12T12:00:12.034Z,2.37
2023-05-12T12:02:39.736Z,2.30
2023-05-12T12:05:09.211Z,2.17
2023-05-12T12:07:37.578Z,2.62
2023-05-12T12:10:14.117Z,3.67
2023-05-12T12:12:44.676Z,2.85
2023-05-12T12:15:12.260Z,2.97
2023-05-12T12:17:40.801Z,2.00
2023-05-12T12:20:09.425Z,2.37
2023-05-12T12:22:36.669Z,1.40
2023-05-12T12:25:04.228Z,3.10
2023-05-12T12:27:31.759Z,1.43
2023-05-12T12:29:59.267Z,1.87
2023-05-12T12:32:27.616Z,1.60
2023-05-12T12:34:55.178Z,2.07
2023-05-12T12:37:22.712Z,1.63
2023-05-12T12:39:50.236Z,0.98
2023-05-12T12:42:17.821Z,2.53
2023-05-12T12:44:45.356Z,0.97
2023-05-12T12:47:13.012Z,1.10
2023-05-12T12:49:41.240Z,1.40
2023-05-12T12:52:08.776Z,2.43
2023-05-12T12:54:36.354Z,1.27
2023-05-12T12:57:03.908Z,2.30
2023-05-12T12:59:31.440Z,0.90
2023-05-12T13:01:59.001Z,4.40
2023-05-12T13:04:27.339Z,1.70
2023-05-12T13:06:54.861Z,2.77
2023-05-12T13:09:22.407Z,2.10
2023-05-12T13:11:49.984Z,2.13
2023-05-12T13:14:17.512Z,2.97
2023-05-12T13:16:45.118Z,1.70
2023-05-12T13:19:13.441Z,1.50
2023-05-12T13:21:40.907Z,0.90
2023-05-12T13:24:08.431Z,1.13
2023-05-12T13:26:36.761Z,0.90
2023-05-12T13:29:04.321Z,2.50
2023-05-12T13:31:32.033Z,1.60
2023-05-12T13:34:00.258Z,2.60
2023-05-12T13:36:27.797Z,0.93
2023-05-12T13:38:55.311Z,3.00
2023-05-12T13:41:23.678Z,1.30
2023-05-12T13:43:51.189Z,2.53
2023-05-12T13:46:18.747Z,1.98
2023-05-12T13:48:47.059Z,1.10
2023-05-12T13:51:14.587Z,1.60
2023-05-12T13:53:42.119Z,2.62
2023-05-12T13:56:10.496Z,2.90
2023-05-12T13:58:38.003Z,2.23
2023-05-12T14:01:08.006Z,2.37
2023-05-12T14:03:33.223Z,3.70
2023-05-12T14:06:00.733Z,2.33
2023-05-12T14:08:28.288Z,2.30
2023-05-12T14:10:56.610Z,3.37
2023-05-12T14:13:24.134Z,3.13
2023-05-12T14:15:52.026Z,3.00
2023-05-12T14:18:19.233Z,3.00
2023-05-12T14:20:47.526Z,4.97
2023-05-12T14:23:15.061Z,3.17
2023-05-12T14:25:42.621Z,2.90
2023-05-12T14:28:10.255Z,2.63
2023-05-12T14:30:37.791Z,2.60
2023-05-12T14:33:05.318Z,2.70
2023-05-12T14:35:32.811Z,5.57
2023-05-12T14:38:00.299Z,2.97
2023-05-12T14:40:27.859Z,3.10
2023-05-12T14:42:55.492Z,4.68
2023-05-12T14:45:23.158Z,3.40
2023-05-12T14:47:50.577Z,3.50
2023-05-12T14:50:18.224Z,3.50
2023-05-12T14:52:45.620Z,3.90
2023-05-12T14:55:13.225Z,3.40
2023-05-12T14:57:43.699Z,3.67
2023-05-12T15:00:11.251Z,5.18
2023-05-12T15:02:38.979Z,3.50
2023-05-12T15:05:06.477Z,4.10
2023-05-12T15:07:34.016Z,4.33
2023-05-12T15:10:01.627Z,6.93
2023-05-12T15:12:29.134Z,5.07
2023-05-12T15:14:57.426Z,5.00
2023-05-12T15:17:25.560Z,4.70
2023-05-12T15:19:53.058Z,7.07
2023-05-12T15:22:20.594Z,5.13
2023-05-12T15:24:48.932Z,5.47
2023-05-12T15:27:16.462Z,6.03
2023-05-12T15:29:44.000Z,5.40
2023-05-12T15:32:12.341Z,5.43
2023-05-12T15:34:40.139Z,5.37
2023-05-12T15:37:07.687Z,5.53
2023-05-12T15:39:36.009Z,4.03
2023-05-12T15:42:04.341Z,7.10
2023-05-12T15:44:31.062Z,4.53
2023-05-12T15:46:58.785Z,6.10
2023-05-12T15:49:26.943Z,5.10
2023-05-12T15:51:54.467Z,4.97
2023-05-12T15:54:22.808Z,4.37
2023-05-12T15:56:50.340Z,4.90
2023-05-12T15:59:17.859Z,4.33
2023-05-12T16:01:46.236Z,5.27
2023-05-12T16:04:13.811Z,6.43
2023-05-12T16:06:41.268Z,3.73
2023-05-12T16:09:09.640Z,5.60
2023-05-12T16:11:37.925Z,5.23
2023-05-12T16:14:05.462Z,7.23
2023-05-12T16:16:33.858Z,5.30
2023-05-12T16:19:01.385Z,3.70
2023-05-12T16:21:28.888Z,4.40
2023-05-12T16:23:56.453Z,4.03
2023-05-12T16:26:24.017Z,4.33
2023-05-12T16:28:52.279Z,4.63
2023-05-12T16:31:19.943Z,4.27
2023-05-12T16:33:47.403Z,3.30
2023-05-12T16:36:16.120Z,5.53
2023-05-12T16:38:43.314Z,5.23
2023-05-12T16:41:10.836Z,3.10
2023-05-12T16:43:38.363Z,3.43
2023-05-12T16:46:05.995Z,3.97
2023-05-12T16:48:36.573Z,4.40
2023-05-12T16:51:04.129Z,3.77
2023-05-12T16:53:31.923Z,4.35
2023-05-12T16:55:59.225Z,6.67
2023-05-12T16:58:26.752Z,4.05
2023-05-12T17:00:55.672Z,3.93
2023-05-12T17:03:23.508Z,2.77
2023-05-12T17:05:51.504Z,4.43
2023-05-12T17:08:19.117Z,3.53
2023-05-12T17:10:46.599Z,2.97
2023-05-12T17:13:14.115Z,3.43
2023-05-12T17:15:41.775Z,2.70
2023-05-12T17:18:09.380Z,3.23
2023-05-12T17:20:36.844Z,4.03
2023-05-12T17:23:05.443Z,2.37
2023-05-12T17:25:32.963Z,2.70
2023-05-12T17:28:00.493Z,4.37
2023-05-12T17:30:28.136Z,3.30
2023-05-12T17:32:55.690Z,3.60
2023-05-12T17:35:24.163Z,4.87
2023-05-12T17:37:51.575Z,3.27
2023-05-12T17:40:19.060Z,4.10
2023-05-12T17:42:47.376Z,3.97
2023-05-12T17:45:14.955Z,3.37
2023-05-12T17:47:42.515Z,2.50
2023-05-12T17:50:12.681Z,3.97
2023-05-12T17:52:41.012Z,3.20
2023-05-12T17:55:08.590Z,2.60
2023-05-12T17:57:36.111Z,2.83
2023-05-12T18:00:03.660Z,5.00
2023-05-12T18:02:31.260Z,3.90
2023-05-12T18:04:59.488Z,3.00
2023-05-12T18:07:27.393Z,3.03
2023-05-12T18:09:54.880Z,3.07
2023-05-12T18:12:23.183Z,4.07
2023-05-12T18:14:50.747Z,2.73
2023-05-12T18:17:18.335Z,4.60
2023-05-12T18:19:46.587Z,5.00
2023-05-12T18:22:14.154Z,3.50
2023-05-12T18:24:41.673Z,2.60
2023-05-12T18:27:10.007Z,4.27
2023-05-12T18:29:38.047Z,3.83
2023-05-12T18:32:05.581Z,7.43
2023-05-12T18:34:33.093Z,3.13
2023-05-12T18:37:00.717Z,4.07
2023-05-12T18:39:28.555Z,2.73
2023-05-12T18:41:56.848Z,2.80
2023-05-12T18:44:25.347Z,3.80
2023-05-12T18:46:53.005Z,2.90
2023-05-12T18:49:20.454Z,4.10
2023-05-12T18:51:48.041Z,3.97
2023-05-12T18:54:15.563Z,4.97
2023-05-12T18:56:43.856Z,3.07
2023-05-12T18:59:11.430Z,5.80
2023-05-12T19:01:39.006Z,2.87
2023-05-12T19:04:06.512Z,4.00
2023-05-12T19:06:35.237Z,4.97
2023-05-12T19:09:02.789Z,4.00
2023-05-12T19:11:30.318Z,5.97
2023-05-12T19:13:58.669Z,5.93
2023-05-12T19:16:26.232Z,4.50
2023-05-12T19:18:53.755Z,4.33
2023-05-12T19:21:21.294Z,2.77
2023-05-12T19:23:48.832Z,3.57
2023-05-12T19:26:17.132Z,3.57
2023-05-12T19:28:44.705Z,4.93
2023-05-12T19:31:12.330Z,6.87
2023-05-12T19:33:39.779Z,6.60
2023-05-12T19:36:08.216Z,3.40
2023-05-12T19:38:35.807Z,3.70
2023-05-12T19:41:03.347Z,3.20
2023-05-12T19:43:30.944Z,3.50
2023-05-12T19:45:59.289Z,5.57
2023-05-12T19:48:26.774Z,3.60
2023-05-12T19:50:54.359Z,5.13
2023-05-12T19:53:22.652Z,5.93
2023-05-12T19:55:50.177Z,5.17
2023-05-12T19:58:18.510Z,4.63
2023-05-12T20:00:46.035Z,5.10
2023-05-12T20:03:13.680Z,9.27
2023-05-12T20:05:41.910Z,7.43
2023-05-12T20:08:09.470Z,4.93
2023-05-12T20:10:37.003Z,8.70
2023-05-12T20:13:04.616Z,4.80
2023-05-12T20:15:32.125Z,5.40
2023-05-12T20:17:59.755Z,4.30
2023-05-12T20:20:27.222Z,5.30
2023-05-12T20:22:54.749Z,5.73
2023-05-12T20:25:23.374Z,3.60
2023-05-12T20:27:50.642Z,3.37
2023-05-12T20:30:18.168Z,3.53
2023-05-12T20:32:45.864Z,7.57
2023-05-12T20:35:14.047Z,6.10
2023-05-12T20:37:41.579Z,6.23
2023-05-12T20:40:09.289Z,3.83
2023-05-12T20:42:36.883Z,5.10
2023-05-12T20:45:04.470Z,7.90
2023-05-12T20:47:32.142Z,6.60
2023-05-12T20:49:59.618Z,3.50
2023-05-12T20:52:27.156Z,5.72
2023-05-12T20:54:57.521Z,3.83
2023-05-12T20:57:25.076Z,3.23
2023-05-12T20:59:58.557Z,3.23
2023-05-12T21:02:26.178Z,3.83
2023-05-12T21:04:53.650Z,3.70
2023-05-12T21:07:21.194Z,4.90
2023-05-12T21:09:48.723Z,3.97
2023-05-12T21:12:17.327Z,4.00
2023-05-12T21:14:44.846Z,3.63
2023-05-12T21:17:12.380Z,3.63
2023-05-12T21:19:39.974Z,3.47
2023-05-12T21:22:07.501Z,4.17
2023-05-12T21:24:35.028Z,3.43
2023-05-12T21:27:02.592Z,5.80
2023-05-12T21:29:30.125Z,7.60
2023-05-12T21:31:58.470Z,4.00
2023-05-12T21:34:25.999Z,4.20
2023-05-12T21:36:53.537Z,3.43
2023-05-12T21:39:21.072Z,3.63
2023-05-12T21:41:49.414Z,5.77
2023-05-12T21:44:17.473Z,6.93
2023-05-12T21:46:45.126Z,4.33
2023-05-12T21:49:12.564Z,4.27
2023-05-12T21:51:40.096Z,6.07
2023-05-12T21:54:08.400Z,4.63
2023-05-12T21:56:35.993Z,4.97
2023-05-12T21:59:03.517Z,5.17
2023-05-12T22:01:31.145Z,6.22
2023-05-12T22:03:59.442Z,8.65
2023-05-12T22:06:26.950Z,6.73
2023-05-12T22:08:54.487Z,6.65
2023-05-12T22:11:22.059Z,5.17
2023-05-12T22:13:49.592Z,6.23
2023-05-12T22:16:18.585Z,7.50
2023-05-12T22:18:45.516Z,5.17
2023-05-12T22:21:13.008Z,5.70
2023-05-12T22:23:40.578Z,5.53
2023-05-12T22:26:08.203Z,7.67
2023-05-12T22:28:35.737Z,4.67
2023-05-12T22:31:04.056Z,7.33
2023-05-12T22:33:31.749Z,5.33
2023-05-12T22:35:59.280Z,5.13
2023-05-12T22:38:26.802Z,5.73
2023-05-12T22:40:55.334Z,4.83
2023-05-12T22:43:22.892Z,5.17
2023-05-12T22:45:53.343Z,6.37
2023-05-12T22:48:21.176Z,5.60
2023-05-12T22:50:48.705Z,6.37
2023-05-12T22:53:16.252Z,7.20
2023-05-12T22:55:44.855Z,6.73
2023-05-12T22:58:12.383Z,7.47
2023-05-12T23:00:39.960Z,7.10
2023-05-12T23:03:07.833Z,8.43
2023-05-12T23:05:35.314Z,7.20
2023-05-12T23:08:02.848Z,7.03
2023-05-12T23:10:30.418Z,6.43
2023-05-12T23:12:57.960Z,5.40
2023-05-12T23:15:25.514Z,6.17
2023-05-12T23:17:53.901Z,7.93
2023-05-12T23:20:21.657Z,7.13
2023-05-12T23:22:48.941Z,7.90
2023-05-12T23:25:16.519Z,5.70
2023-05-12T23:27:44.053Z,6.27
2023-05-12T23:30:11.647Z,4.97
2023-05-12T23:32:39.368Z,5.30
2023-05-12T23:35:06.919Z,6.00
2023-05-12T23:37:34.368Z,5.85
2023-05-12T23:40:02.197Z,4.83
2023-05-12T23:42:29.738Z,7.00
2023-05-12T23:44:57.273Z,7.47
2023-05-12T23:47:24.884Z,8.37
2023-05-12T23:49:52.372Z,7.47
2023-05-12T23:52:20.690Z,6.10
2023-05-12T23:54:48.269Z,5.53
2023-05-12T23:57:15.795Z,5.27
2023-05-12T23:59:43.337Z,6.68
